Weather observations for the past three days for
Caldwell - Caldwell Industrial Airport
Metric (Imperial)
Date Time (mdt) Wind (kph) Vis. (km) Weather Sky Cond. Temperature (ºC) Relative Humidity Wind Chill (°C) Heat Index (°C) Pressure Precipitation (cm)
Air Dwpt 6 hour altimeter (cm) sea level (mb) 1 hr 3 hr 6 hr
Max. Min.
03 19:56 W 37 16.09 Breezy NULL 15.6 10 70% 75.62 1007.4
03 18:56 NW 17 16.09 NULL NULL 16.7 11.1 70% 75.57 1006.4
03 17:56 W 20 16.09 NULL NULL 18.9 12.8 21.7 18.3 68% 75.57 1006.4
03 16:56 W 17 16.09 NULL NULL 19.4 12.8 66% 75.62 1007.2
03 15:56 W 19 16.09 NULL NULL 20.6 12.8 61% 75.67 1007.5
03 14:56 N 7 16.09 NULL NULL 21.7 11.1 51% 75.74 1008.7
03 13:56 N 6 16.09 NULL NULL 20 11.1 57% 75.82 1009.7
03 12:56 Calm 16.09 NULL NULL 20 11.1 57% 75.92 1011.0
03 11:56 Calm 16.09 NULL NULL 18.3 10.6 18.3 13.3 61% 75.97 1011.7 0.03
03 10:56 SE 6 16.09 NULL NULL 17.2 11.7 70% 76 1012.1
03 09:56 Calm 16.09 Light Rain NULL 15.6 11.7 78% 76 1012.2 0.03
03 08:56 E 13 16.09 NULL NULL 14.4 11.7 84% 76 1012.1
03 07:56 SE 13 16.09 NULL NULL 13.9 11.7 87% 75.97 1011.5
03 06:56 SE 11 16.09 Light Rain NULL 13.9 12.2 90% 75.95 1011.1
03 05:56 E 11 16.09 Light Rain BKN075 OVC090 13.9 11.7 16.7 13.3 87% 75.92 1010.7 0.13
03 04:56 E 7 16.09 Overcast OVC080 13.9 12.2 90% 75.92 1010.8 0.03
03 03:56 NE 9 16.09 Light Rain FEW055 BKN070 BKN080 13.3 11.7 90% 75.95 1010.9 0.03
03 02:56 NE 11 16.09 Light Rain FEW049 BKN070 OVC090 13.3 11.7 90% 75.97 1011.3 0.03 0.08
03 01:56 NE 13 16.09 Light Rain SCT060 OVC085 13.3 12.2 93% 76 1011.6 0.05
03 00:56 W 13 16.09 Light Rain CLR 14.4 11.1 81% 76 1011.8
02 23:56 W 7 16.09 Fair CLR 16.1 8.3 23.9 16.1 60% 75.97 1011.5
02 22:56 N 7 16.09 Fair CLR 16.7 7.2 54% 75.97 1011.4
02 21:56 NW 17 16.09 Fair CLR 17.8 6.7 48% 75.9 1010.4
02 20:56 W 28 G 39 16.09 Fair CLR 18.9 6.7 45% 75.84 1009.9
02 19:56 SW 15 16.09 Fair CLR 22.2 2.2 27% 75.82 1009.2
02 18:56 S 11 16.09 Fair CLR 23.3 2.8 26% 75.79 1008.9
02 17:56 Calm 16.09 Fair CLR 23.9 2.2 25.6 22.8 24% 25 75.79 1008.7
02 16:56 SW 26 G 31 16.09 Fair CLR 24.4 2.2 23% 25 75.82 1009.0
02 15:56 S 28 G 37 16.09 Fair CLR 25 1.7 22% 25 75.84 1009.5
02 14:56 S 28 G 35 16.09 Fair CLR 25 2.2 23% 25 75.84 1009.7
02 13:56 S 20 G 37 16.09 Fair CLR 25 2.2 23% 25 75.84 1009.6
02 12:56 SW 28 G 37 16.09 Fair CLR 24.4 1.7 23% 25 75.87 1009.9
02 11:56 SW 17 G 28 16.09 Fair CLR 22.8 -0.6 23.3 15.6 21% 75.92 1010.6
02 10:56 SW 17 16.09 Fair CLR 22.2 -1.1 21% 75.9 1010.2
02 09:56 W 15 16.09 Fair CLR 20 -1.1 24% 75.87 1009.9
02 08:56 W 15 16.09 A Few Clouds FEW090 18.9 -0.6 27% 75.82 1009.3
02 07:56 N 6 16.09 A Few Clouds FEW095 16.7 5.6 48% 75.77 1008.5
02 06:56 NE 7 16.09 Fair CLR 17.2 6.1 48% 75.69 1007.4
02 05:56 W 15 16.09 Fair CLR 18.9 2.2 19.4 13.3 33% 75.67 1006.5
02 04:56 Calm 16.09 Fair CLR 17.2 7.8 54% 75.62 1005.9
02 03:56 Calm 16.09 Fair CLR 15.6 10 70% 75.57 1005.6
02 02:56 E 6 16.09 Fair CLR 13.9 10 78% 75.54 1005.4
02 01:56 Calm 16.09 Fair CLR 16.7 11.1 70% 75.49 1004.6
02 00:56 Calm 16.09 Fair CLR 17.2 11.1 68% 75.46 1004.5
01 23:56 SW 7 16.09 Fair CLR 17.8 11.1 28.3 17.8 65% 75.49 1004.8
01 22:56 SW 7 16.09 Fair CLR 19.4 11.1 59% 75.49 1004.6
01 21:56 W 6 16.09 Fair CLR 20.6 11.1 55% 75.49 1004.4
01 20:56 Calm 16.09 Fair CLR 21.7 10.6 49% 75.46 1004.2
01 19:56 Calm 12.87 Fair CLR 24.4 10 40% 25 75.46 1003.9
01 18:56 NW 7 16.09 Fair CLR 27.2 10.6 35% 27 75.49 1004.3
01 17:56 W 15 16.09 Fair CLR 28.3 8.9 29.4 23.3 30% 27 75.51 1004.7
01 16:56 W 13 16.09 Fair CLR 28.9 8.3 27% 28 75.57 1005.4
01 15:56 W 13 16.09 Fair CLR 28.3 9.4 31% 27 75.62 1006.0
01 14:56 NW 9 16.09 Fair CLR 27.8 11.1 35% 27 75.69 1007.1
01 13:56 W 17 16.09 Fair CLR 27.2 7.8 29% 27 75.72 1007.9
01 12:56 SW 15 14.48 Fair CLR 23.9 9.4 40% 25 75.82 1009.3
01 11:56 S 19 16.09 Fair CLR 23.3 11.7 23.9 18.3 48% 75.79 1009.0
01 10:56 SE 24 16.09 Fair CLR 23.3 10.6 45% 75.77 1008.5
01 09:56 S 20 G 31 16.09 Fair CLR 23.3 10.6 45% 75.79 1008.5
01 08:56 S 22 16.09 Fair CLR 21.7 9.4 46% 75.74 1007.8
01 07:56 SE 19 16.09 Fair CLR 20.6 8.9 47% 75.69 1007.1
01 06:56 SE 24 16.09 Fair CLR 20.6 8.3 45% 75.67 1006.2
01 05:56 SE 15 16.09 Fair CLR 18.3 7.2 20 13.9 49% 75.67 1006.6
01 04:56 Calm 16.09 Fair CLR 18.3 6.1 45% 75.64 1006.3
01 03:56 SE 17 16.09 Fair CLR 18.9 4.4 39% 75.59 1005.6
01 02:56 SE 11 16.09 Fair CLR 16.7 3.3 41% 75.64 1006.3
01 01:56 Calm 16.09 Fair CLR 14.4 6.7 60% 75.67 1007.2
01 00:56 NE 7 16.09 Fair CLR 15 8.3 64% 75.67 1007.0
31 23:56 NE 7 16.09 Fair CLR 16.7 8.3 31.1 16.7 58% 75.69 1007.5
31 22:56 SE 7 16.09 Fair CLR 18.9 6.7 45% 75.72 1007.9
31 21:56 Calm 16.09 Fair CLR 21.1 6.1 38% 75.72 1007.9
31 20:56 W 9 16.09 Fair CLR 25 4.4 26% 25 75.69 1007.6
Date Time (mdt) Wind (kph) Vis. (km) Weather Sky Cond. Air Dwpt Max. Min. Relative Humidity Wind Chill (°C) Heat Index (°C) altimeter (cm) sea level (mb) 1 hr 3 hr 6 hr
6 hour
Temperature (ºC) Pressure Precipitation (cm)